createdAt,value
2022-11-29T00:01:29.195Z,2.16
2022-11-29T00:03:57.301Z,2.21
2022-11-29T00:06:27.534Z,2.25
2022-11-29T00:08:56.752Z,2.22
2022-11-29T00:11:46.212Z,2.26
2022-11-29T00:14:16.316Z,2.28
2022-11-29T00:16:44.080Z,2.19
2022-11-29T00:19:13.772Z,2.22
2022-11-29T00:21:41.404Z,2.23
2022-11-29T00:24:10.461Z,2.25
2022-11-29T00:26:38.114Z,2.31
2022-11-29T00:29:06.210Z,2.22
2022-11-29T00:31:34.851Z,2.26
2022-11-29T00:34:05.759Z,2.25
2022-11-29T00:36:34.999Z,2.31
2022-11-29T00:39:04.222Z,2.28
2022-11-29T00:41:32.677Z,2.31
2022-11-29T00:44:00.803Z,2.27
2022-11-29T00:46:28.776Z,2.24
2022-11-29T00:48:55.924Z,2.27
2022-11-29T00:51:23.234Z,2.28
2022-11-29T00:53:51.068Z,2.26
2022-11-29T00:56:19.087Z,2.29
2022-11-29T00:58:46.463Z,2.25
2022-11-29T01:01:14.177Z,2.18
2022-11-29T01:03:42.177Z,2.20
2022-11-29T01:06:11.221Z,2.21
2022-11-29T01:08:39.435Z,2.12
2022-11-29T01:11:18.496Z,2.10
2022-11-29T01:13:46.017Z,2.08
2022-11-29T01:16:15.581Z,2.11
2022-11-29T01:18:43.499Z,2.10
2022-11-29T01:21:20.572Z,2.10
2022-11-29T01:23:50.466Z,2.12
2022-11-29T01:26:20.749Z,2.13
2022-11-29T01:28:50.696Z,2.16
2022-11-29T01:31:31.284Z,2.20
2022-11-29T01:34:02.609Z,2.23
2022-11-29T01:36:31.500Z,2.23
2022-11-29T01:39:04.719Z,2.20
2022-11-29T01:41:35.194Z,2.25
2022-11-29T01:44:04.562Z,2.28
2022-11-29T01:46:39.218Z,2.25
2022-11-29T01:49:16.303Z,2.27
2022-11-29T01:51:52.493Z,2.22
2022-11-29T01:54:21.777Z,2.22
2022-11-29T01:56:52.467Z,2.23
2022-11-29T01:59:22.858Z,2.20
2022-11-29T02:01:50.313Z,2.30
2022-11-29T02:04:19.770Z,2.29
2022-11-29T02:06:47.845Z,2.20
2022-11-29T02:09:22.820Z,2.18
2022-11-29T02:12:10.193Z,2.14
2022-11-29T02:15:06.153Z,2.12
2022-11-29T02:18:00.231Z,2.09
2022-11-29T02:20:45.891Z,2.12
2022-11-29T02:23:32.205Z,2.11
2022-11-29T02:26:21.058Z,2.12
2022-11-29T02:29:26.738Z,2.16
2022-11-29T02:32:15.401Z,2.18
2022-11-29T02:34:45.795Z,2.13
2022-11-29T02:37:40.694Z,2.14
2022-11-29T02:40:34.317Z,2.16
2022-11-29T02:43:40.802Z,2.14
2022-11-29T02:46:34.096Z,2.09
2022-11-29T02:49:07.049Z,2.10
2022-11-29T02:51:56.264Z,2.13
2022-11-29T02:54:27.552Z,2.13
2022-11-29T02:57:00.813Z,2.15
2022-11-29T02:59:55.554Z,2.13
2022-11-29T03:02:47.340Z,2.15
2022-11-29T03:05:41.895Z,2.09
2022-11-29T03:08:12.956Z,2.08
2022-11-29T03:10:47.350Z,2.06
2022-11-29T03:13:26.270Z,2.05
2022-11-29T03:16:03.850Z,2.09
2022-11-29T03:19:01.371Z,2.07
2022-11-29T03:22:00.127Z,2.09
2022-11-29T03:24:37.730Z,2.12
2022-11-29T03:27:13.026Z,2.03
2022-11-29T03:30:03.211Z,2.08
2022-11-29T03:32:46.892Z,2.11
2022-11-29T03:35:22.713Z,2.04
2022-11-29T03:38:26.203Z,2.02
2022-11-29T03:41:03.537Z,2.08
2022-11-29T03:43:42.805Z,2.12
2022-11-29T03:46:17.196Z,2.09
2022-11-29T03:48:54.995Z,2.01
2022-11-29T03:51:50.219Z,2.01
2022-11-29T03:54:26.739Z,2.04
2022-11-29T03:56:55.021Z,2.05
2022-11-29T03:59:29.468Z,2.04
2022-11-29T04:02:30.661Z,2.04
2022-11-29T04:05:29.948Z,2.02
2022-11-29T04:08:17.471Z,2.08
2022-11-29T04:11:19.944Z,2.09
2022-11-29T04:14:36.635Z,2.00
2022-11-29T04:17:36.578Z,2.00
2022-11-29T04:20:23.043Z,2.00
2022-11-29T04:23:22.836Z,1.97
2022-11-29T04:26:38.258Z,1.99
2022-11-29T04:29:21.617Z,2.03
2022-11-29T04:32:19.140Z,2.03
2022-11-29T04:34:46.804Z,2.04
2022-11-29T04:37:45.942Z,1.98
2022-11-29T04:40:28.784Z,2.01
2022-11-29T04:43:28.309Z,2.03
2022-11-29T04:46:27.425Z,1.99
2022-11-29T04:49:21.093Z,2.01
2022-11-29T04:52:12.973Z,2.02
2022-11-29T04:55:24.958Z,2.05
2022-11-29T04:58:24.344Z,1.97
2022-11-29T05:01:00.553Z,2.00
2022-11-29T05:03:34.762Z,1.97
2022-11-29T05:06:28.245Z,1.96
2022-11-29T05:09:15.051Z,1.99
2022-11-29T05:12:00.756Z,1.97
2022-11-29T05:14:35.047Z,1.93
2022-11-29T05:17:43.461Z,1.90
2022-11-29T05:20:15.760Z,1.91
2022-11-29T05:23:16.890Z,1.95
2022-11-29T05:25:59.346Z,2.03
2022-11-29T05:28:30.537Z,1.99
2022-11-29T05:31:20.353Z,2.04
2022-11-29T05:34:07.011Z,2.01
2022-11-29T05:36:58.747Z,2.01
2022-11-29T05:39:31.991Z,2.03
2022-11-29T05:42:31.617Z,2.07
2022-11-29T05:45:14.811Z,2.04
2022-11-29T05:48:28.287Z,1.89
2022-11-29T05:51:04.239Z,1.95
2022-11-29T05:53:48.657Z,1.91
2022-11-29T05:56:40.609Z,1.90
2022-11-29T05:59:20.430Z,1.88
2022-11-29T06:02:13.716Z,1.89
2022-11-29T06:04:47.172Z,1.96
2022-11-29T06:07:41.459Z,2.00
2022-11-29T06:10:22.002Z,1.99
2022-11-29T06:13:18.655Z,1.98
2022-11-29T06:16:13.450Z,2.03
2022-11-29T06:19:08.971Z,1.97
2022-11-29T06:21:52.698Z,1.98
2022-11-29T06:24:26.402Z,1.97
2022-11-29T06:27:30.833Z,1.97
2022-11-29T09:50:24.801Z,1.01
2022-11-29T09:53:06.993Z,1.17
2022-11-29T09:55:48.800Z,1.33
2022-11-29T09:58:22.981Z,1.49
2022-11-29T10:00:53.219Z,1.66
2022-11-29T10:03:54.966Z,1.77
2022-11-29T10:06:37.856Z,1.94
2022-11-29T10:09:22.731Z,2.07
2022-11-29T10:12:14.103Z,2.19
2022-11-29T10:14:53.972Z,2.26
2022-11-29T10:17:41.061Z,2.40
2022-11-29T10:20:21.076Z,2.43
2022-11-29T10:23:05.666Z,2.48
2022-11-29T10:25:37.905Z,2.53
2022-11-29T10:28:09.644Z,2.57
2022-11-29T10:30:37.014Z,2.62
2022-11-29T10:33:26.515Z,2.62
2022-11-29T10:35:58.442Z,2.66
2022-11-29T10:38:32.824Z,2.68
2022-11-29T10:41:07.817Z,2.60
2022-11-29T10:43:35.122Z,2.57
2022-11-29T10:46:02.907Z,2.54
2022-11-29T10:48:33.309Z,2.59
2022-11-29T10:51:01.785Z,2.60
2022-11-29T10:53:33.356Z,2.66
2022-11-29T10:56:27.713Z,2.68
2022-11-29T10:59:05.377Z,2.69
2022-11-29T11:01:44.095Z,2.72
2022-11-29T11:04:43.086Z,2.82
2022-11-29T11:07:41.847Z,2.84
2022-11-29T11:10:27.129Z,2.81
2022-11-29T11:13:20.956Z,2.77
2022-11-29T11:15:48.288Z,2.77
2022-11-29T11:18:25.799Z,2.73
2022-11-29T11:20:56.600Z,2.73
2022-11-29T11:23:29.668Z,2.70
2022-11-29T11:25:59.432Z,2.68
2022-11-29T11:28:30.307Z,2.68
2022-11-29T11:31:05.823Z,2.68
2022-11-29T11:33:35.494Z,2.71
2022-11-29T11:36:08.074Z,2.75
2022-11-29T11:38:37.311Z,2.78
2022-11-29T11:41:45.074Z,2.81
2022-11-29T11:44:46.811Z,2.77
2022-11-29T11:47:19.638Z,2.77
2022-11-29T11:50:13.962Z,2.71
2022-11-29T11:52:54.088Z,2.70
2022-11-29T11:55:29.950Z,2.68
2022-11-29T11:58:10.223Z,2.66
2022-11-29T12:03:33.800Z,2.63
2022-11-29T12:06:19.109Z,2.61
2022-11-29T12:08:49.637Z,2.60
2022-11-29T12:11:19.247Z,2.69
2022-11-29T12:13:52.955Z,2.58
2022-11-29T12:16:29.752Z,2.56
2022-11-29T12:19:23.827Z,2.59
2022-11-29T12:21:56.158Z,2.47
2022-11-29T12:24:38.159Z,2.45
2022-11-29T12:27:06.785Z,2.45
2022-11-29T12:29:35.692Z,2.42
2022-11-29T12:32:29.225Z,2.44
2022-11-29T12:35:35.413Z,2.41
2022-11-29T12:38:22.738Z,2.37
2022-11-29T12:41:13.117Z,2.37
2022-11-29T12:43:52.054Z,2.36
2022-11-29T12:46:27.920Z,2.35
2022-11-29T12:49:26.909Z,2.28
2022-11-29T12:52:26.385Z,2.25
2022-11-29T12:55:26.595Z,2.25
2022-11-29T12:58:01.887Z,2.28
2022-11-29T13:00:36.513Z,2.27
2022-11-29T13:03:43.045Z,2.29
2022-11-29T13:06:23.643Z,2.36
2022-11-29T13:09:12.194Z,2.34
2022-11-29T13:11:49.117Z,2.30
2022-11-29T13:17:30.704Z,2.26
2022-11-29T13:20:10.859Z,2.23
2022-11-29T13:22:45.808Z,2.35
2022-11-29T13:25:16.808Z,2.28
2022-11-29T13:27:58.581Z,2.24
2022-11-29T13:30:26.638Z,2.24
2022-11-29T13:33:04.966Z,2.22
2022-11-29T13:35:39.179Z,2.24
2022-11-29T13:38:35.228Z,2.22
2022-11-29T13:41:35.079Z,2.17
2022-11-29T13:44:12.382Z,2.20
2022-11-29T13:47:05.821Z,2.16
2022-11-29T13:49:55.413Z,2.11
2022-11-29T13:52:46.292Z,2.06
2022-11-29T13:55:13.316Z,2.09
2022-11-29T13:58:19.077Z,2.13
2022-11-29T14:00:46.202Z,2.15
2022-11-29T14:03:19.477Z,2.13
2022-11-29T14:06:08.866Z,2.16
2022-11-29T14:11:54.568Z,2.18
2022-11-29T14:15:12.508Z,2.16
2022-11-29T14:17:58.795Z,2.09
2022-11-29T14:20:26.055Z,2.07
2022-11-29T14:23:04.980Z,2.08
2022-11-29T14:28:23.825Z,1.98
2022-11-29T14:30:51.924Z,2.01
2022-11-29T14:33:29.980Z,2.00
2022-11-29T14:36:15.181Z,1.96
2022-11-29T14:38:50.319Z,1.87
2022-11-29T14:41:39.520Z,1.93
2022-11-29T14:44:25.006Z,1.91
2022-11-29T14:47:13.671Z,1.91
2022-11-29T14:49:44.685Z,1.91
2022-11-29T14:52:14.766Z,1.91
2022-11-29T14:55:17.073Z,1.89
2022-11-29T14:58:03.907Z,1.88
2022-11-29T15:00:49.768Z,1.90
2022-11-29T15:03:16.809Z,1.89
2022-11-29T15:05:48.115Z,1.98
2022-11-29T15:08:32.620Z,1.90
2022-11-29T15:11:11.532Z,1.96
2022-11-29T15:13:48.955Z,1.97
2022-11-29T15:16:44.962Z,2.00
2022-11-29T15:19:29.263Z,2.00
2022-11-29T15:22:07.791Z,2.01
2022-11-29T15:24:56.090Z,2.02
2022-11-29T15:27:26.715Z,2.02
2022-11-29T15:29:54.000Z,2.05
2022-11-29T15:32:26.284Z,2.06
2022-11-29T15:34:56.200Z,2.04
2022-11-29T15:37:32.189Z,2.03
2022-11-29T15:40:16.897Z,2.02
2022-11-29T15:43:19.298Z,2.03
2022-11-29T15:45:51.576Z,1.96
2022-11-29T15:48:24.647Z,1.99
2022-11-29T15:50:58.028Z,1.99
2022-11-29T15:53:34.119Z,1.97
2022-11-29T15:56:03.479Z,1.99
2022-11-29T15:58:34.399Z,1.98
2022-11-29T16:01:03.001Z,1.99
2022-11-29T16:03:35.880Z,1.96
2022-11-29T16:06:21.115Z,1.97
2022-11-29T16:08:49.998Z,1.98
2022-11-29T16:11:21.383Z,2.00
2022-11-29T16:14:05.784Z,1.98
2022-11-29T16:16:45.316Z,2.00
2022-11-29T16:19:35.952Z,1.97
2022-11-29T16:22:13.738Z,1.92
2022-11-29T16:24:47.385Z,1.91
2022-11-29T16:27:15.330Z,1.87
2022-11-29T16:29:45.474Z,1.90
2022-11-29T16:32:26.909Z,1.90
2022-11-29T16:34:54.908Z,1.84
2022-11-29T16:37:26.141Z,1.91
2022-11-29T16:39:58.096Z,1.89
2022-11-29T16:42:29.424Z,1.88
2022-11-29T16:45:02.462Z,1.85
2022-11-29T16:47:31.906Z,1.90
2022-11-29T16:50:02.391Z,1.91
2022-11-29T16:52:31.650Z,1.91
2022-11-29T16:54:59.223Z,1.95
2022-11-29T16:57:27.756Z,1.96
2022-11-29T16:59:55.084Z,1.96
2022-11-29T17:02:22.735Z,1.93
2022-11-29T17:04:51.707Z,1.97
2022-11-29T17:07:28.016Z,1.93
2022-11-29T17:09:55.551Z,1.96
2022-11-29T17:12:22.904Z,1.89
2022-11-29T17:14:50.002Z,1.95
2022-11-29T17:17:23.626Z,1.93
2022-11-29T17:19:50.888Z,1.91
2022-11-29T17:22:18.076Z,1.89
2022-11-29T17:24:48.256Z,1.90
2022-11-29T17:27:15.779Z,1.92
2022-11-29T17:29:42.874Z,1.94
2022-11-29T17:32:10.124Z,1.96
2022-11-29T17:34:37.622Z,1.99
2022-11-29T17:37:04.790Z,1.98
2022-11-29T17:39:32.485Z,1.93
2022-11-29T17:41:59.560Z,1.93
2022-11-29T17:44:26.752Z,1.92
2022-11-29T17:46:54.093Z,1.88
2022-11-29T17:49:21.299Z,1.88
2022-11-29T17:51:52.965Z,1.89
2022-11-29T17:54:22.590Z,1.82
2022-11-29T17:56:50.452Z,1.87
2022-11-29T17:59:17.824Z,1.91
2022-11-29T18:01:47.576Z,1.93
2022-11-29T18:04:15.245Z,1.87
2022-11-29T18:06:42.623Z,1.92
2022-11-29T18:09:11.519Z,1.96
2022-11-29T18:11:47.481Z,1.97
2022-11-29T18:14:19.191Z,1.88
2022-11-29T18:16:46.531Z,1.89
2022-11-29T18:19:16.576Z,1.88
2022-11-29T18:21:43.774Z,1.90
2022-11-29T18:24:11.139Z,1.90
2022-11-29T18:26:39.214Z,1.85
2022-11-29T18:29:07.441Z,1.91
2022-11-29T18:31:37.318Z,1.85
2022-11-29T18:34:07.409Z,1.80
2022-11-29T18:36:37.398Z,1.80
2022-11-29T18:39:10.047Z,1.83
2022-11-29T18:41:38.164Z,1.79
2022-11-29T18:44:11.070Z,1.90
2022-11-29T18:46:40.061Z,1.93
2022-11-29T18:49:09.461Z,1.97
2022-11-29T18:51:38.195Z,1.98
2022-11-29T18:54:06.172Z,1.94
2022-11-29T18:56:34.587Z,1.90
2022-11-29T18:59:08.330Z,1.81
2022-11-29T19:01:38.182Z,1.80
2022-11-29T19:04:05.579Z,1.85
2022-11-29T19:06:39.284Z,1.88
2022-11-29T19:09:11.517Z,1.94
2022-11-29T19:11:38.944Z,1.92
2022-11-29T19:14:11.796Z,1.82
2022-11-29T19:16:43.894Z,1.85
2022-11-29T19:19:11.663Z,1.78
2022-11-29T19:21:41.937Z,1.85
2022-11-29T19:24:16.026Z,1.89
2022-11-29T19:26:45.196Z,1.95
2022-11-29T19:29:13.719Z,1.99
2022-11-29T19:31:41.260Z,1.97
2022-11-29T19:34:08.622Z,1.89
2022-11-29T19:36:37.799Z,1.89
2022-11-29T19:39:05.223Z,1.87
2022-11-29T19:41:34.531Z,1.81
2022-11-29T19:44:04.895Z,1.81
2022-11-29T19:46:36.927Z,1.80
2022-11-29T19:49:06.637Z,1.78
2022-11-29T19:51:34.323Z,1.76
2022-11-29T19:54:04.445Z,1.86
2022-11-29T19:56:32.761Z,1.87
2022-11-29T19:59:00.170Z,1.85
2022-11-29T20:01:40.216Z,1.87
2022-11-29T20:04:08.366Z,1.86
2022-11-29T20:06:35.519Z,1.89
2022-11-29T20:09:02.699Z,1.91
2022-11-29T20:11:29.873Z,1.95
2022-11-29T20:14:01.501Z,1.90
2022-11-29T20:16:29.785Z,1.88
2022-11-29T20:18:57.578Z,1.86
2022-11-29T20:21:29.993Z,1.92
2022-11-29T20:24:03.322Z,1.98
2022-11-29T20:26:32.391Z,2.01
2022-11-29T20:29:00.350Z,1.96
2022-11-29T20:31:27.467Z,1.93
2022-11-29T20:33:57.767Z,1.83
2022-11-29T20:36:43.483Z,1.85
2022-11-29T20:39:37.873Z,1.85
2022-11-29T20:42:33.825Z,1.85
2022-11-29T20:45:03.346Z,1.94
2022-11-29T20:47:51.465Z,1.96
2022-11-29T20:50:23.993Z,1.98
2022-11-29T20:53:03.212Z,1.93
2022-11-29T20:55:30.365Z,1.83
2022-11-29T20:57:57.266Z,1.81
2022-11-29T21:00:24.930Z,1.83
2022-11-29T21:02:52.012Z,1.85
2022-11-29T21:05:19.014Z,1.89
2022-11-29T21:07:46.982Z,1.87
2022-11-29T21:10:15.855Z,1.88
2022-11-29T21:12:45.867Z,1.86
2022-11-29T21:15:16.447Z,1.88
2022-11-29T21:17:43.740Z,1.81
2022-11-29T21:20:18.841Z,1.76
2022-11-29T21:23:12.679Z,1.82
2022-11-29T21:25:50.523Z,1.82
2022-11-29T21:28:17.650Z,1.80
2022-11-29T21:30:45.470Z,1.78
2022-11-29T21:33:12.694Z,1.76
2022-11-29T21:35:40.290Z,1.73
2022-11-29T21:38:13.836Z,1.83
2022-11-29T21:40:40.943Z,1.83
2022-11-29T21:43:08.045Z,1.87
2022-11-29T21:45:35.077Z,1.87
2022-11-29T21:48:02.559Z,1.89
2022-11-29T21:50:29.558Z,1.88
2022-11-29T21:52:56.614Z,1.90
2022-11-29T21:55:30.023Z,1.89
2022-11-29T21:57:59.045Z,1.85
2022-11-29T22:00:26.339Z,1.88
2022-11-29T22:02:53.497Z,1.86
2022-11-29T22:05:20.993Z,1.92
2022-11-29T22:07:48.254Z,1.92
2022-11-29T22:10:15.432Z,1.92
2022-11-29T22:12:51.279Z,1.87
2022-11-29T22:15:24.241Z,1.92
2022-11-29T22:17:51.825Z,1.87
2022-11-29T22:20:18.862Z,1.89
2022-11-29T22:22:47.854Z,1.86
2022-11-29T22:25:16.035Z,1.88
2022-11-29T22:27:42.975Z,1.95
2022-11-29T22:30:10.472Z,1.81
2022-11-29T22:32:37.369Z,1.88
2022-11-29T22:35:04.476Z,1.84
2022-11-29T22:37:41.166Z,1.85
2022-11-29T22:40:08.853Z,1.87
2022-11-29T22:42:36.073Z,1.93
2022-11-29T22:45:04.446Z,1.95
2022-11-29T22:47:31.551Z,1.95
2022-11-29T22:49:58.922Z,1.93
2022-11-29T22:52:27.689Z,1.98
2022-11-29T22:54:56.766Z,2.05
2022-11-29T22:57:27.110Z,1.98
2022-11-29T22:59:54.333Z,2.01
2022-11-29T23:02:21.286Z,1.96
2022-11-29T23:04:48.956Z,1.98
2022-11-29T23:07:16.478Z,1.93
2022-11-29T23:09:43.713Z,1.93
2022-11-29T23:12:10.973Z,1.89
2022-11-29T23:14:38.671Z,1.90
2022-11-29T23:17:05.634Z,1.91
2022-11-29T23:19:32.701Z,1.87
2022-11-29T23:22:00.097Z,1.90
2022-11-29T23:24:27.267Z,1.90
2022-11-29T23:26:54.366Z,1.89
2022-11-29T23:29:21.369Z,1.89
2022-11-29T23:31:48.832Z,1.92
2022-11-29T23:34:16.633Z,1.95
2022-11-29T23:36:49.661Z,1.98
2022-11-29T23:39:18.280Z,1.96
2022-11-29T23:41:45.367Z,1.90
2022-11-29T23:44:12.750Z,1.91
2022-11-29T23:46:39.742Z,1.89
2022-11-29T23:49:06.905Z,1.96
2022-11-29T23:51:34.090Z,2.01
2022-11-29T23:54:01.164Z,1.91
2022-11-29T23:56:28.250Z,1.92
2022-11-29T23:58:55.486Z,1.92
